Archival Weather

Salzburg

Salzburg, Austria (LOWS)

Report from: Thursday, September 21, 2023 9:20 AM CEST
Current time: Friday, July 19, 2024 5:39 AM CEST

Current weather – Weather history – Daily summaries
Weather forecast

Temperature19.0°C (66.2°F)
Dew point13.0°C (55.4°F)
Winds 7 kts (3.6 m/s, 8.1 mph) South-Southeast (150°)
Visibility6.2 mi. (10 km)
Clouds Few clouds 6,000 ft. (1,829 m)
Altimeter29.74 in.Hg (1007 mB)
Relative humidity68 %
Density altitude890 ft. (271 m)
Remarks Fully automated report
No significant changes expected in the next two hours
Flight conditions Visual Meteorological Conditions
Raw dataLOWS 210720Z AUTO 15007KT 9999 FEW060 19/13 Q1007 NOSIG
An error has occurred. This application may no longer respond until reloaded. Reload 🗙